Strona główna
METAR-TAF:

METAR-TAF

Lotnisko :

New Bedford, Massachusetts, Stany Zjednoczone

Szerokość geograficzna: 41-40-31N, Długość geograficzna: 070-57-25W, wysokość: 24 m

Aktualna obserwacja pogody

Raport powstał 57 minut temu, godzina 22:53 UTC
Wiatr 3 kt od zachodnio-północny zachód
Temperatura -2°C
Wilgotność 39%
Ciśnienie 1032 hPa
Widzialność: 16.1 km
bezchmurnie

METAR: KEWB 192253Z 30003KT 10SM CLR M02/M14 A3047 RMK AO2 SLP319 T10171139

czas: 18:50 (23:50 UTC)


TAF: brakujący

Obserwacja i prognoza pogody dla ponad 4000 lotnisk (raport METAR i TAF).

Dostępne stacje oznaczono żółtymi i czerwonymi punktami na mapie.

Najedź kursorem aby zobaczyć nazwę stacji.

Kliknij aby zobaczyć obserwacje i prognozy pogody.

Aby zmienić mapę: kliknij na zielony przycisk z czarnym krzyżykiem, aby powiększyć; na zielony przycisk z myślnikiem, aby pomniejszyć; na zielone strzałki, aby przejść do map sąsiednich.


METAR-TAF: